x

Patapsco, Md (44043) Weather Station

10:50pm - Wed 31st Aug 2016 All times are EDT. -4 hours from GMT.

  • Wind
    16mph, 20mph gusts
  • Air Temp 83°f
  • Sea Pressure 1012.4mb
  • Patapsco, Md
  • Patapsco, Md

More Historic Weather Station data

Upgrade to MSW Pro to gain access to the past 30 days of data for over 8000 Wavebouys and Weather Stations around the globe.

Join Pro

Comparision Forecast

View Surf forecast
   
Wed 08/31 10:50pm  -   -  16 20 mph 1012.4mb - 83f
10:40pm  -   -  13 18 mph 1012.5mb - 83f
10:30pm  -   -  9 13 mph 1012.5mb - 83f
10:20pm  -   -  9 13 mph 1012.5mb - 83f
10:10pm  -   -  11 16 mph 1012.4mb - 83f
10:00pm 1ft 2s 13 16 mph 1012.3mb 83f 83f
9:50pm  -   -  13 18 mph 1012.3mb - 84f
9:40pm  -   -  16 20 mph 1012.4mb - 84f
9:30pm  -   -  16 18 mph 1012.4mb - 83f
9:20pm  -   -  13 16 mph 1012.4mb - 84f
9:10pm  -   -  16 18 mph 1012.4mb - 84f
9:00pm 1ft 2s 16 18 mph 1012.4mb 84f 84f
8:50pm  -   -  13 16 mph 1012.5mb - 84f
8:40pm  -   -  16 18 mph 1012.5mb - 84f
8:30pm  -   -  13 18 mph 1012.5mb - 84f
8:20pm  -   -  13 16 mph 1012.4mb - 84f
8:10pm  -   -  13 16 mph 1012.4mb - 84f
8:00pm 1ft 2s 13 16 mph 1012.4mb 84f 84f
7:50pm  -   -  13
mph
1012.3mb - 84f
7:10pm  -   -  11 13 mph 1011.8mb - 85f
7:00pm 1ft 2s 13 16 mph 1011.8mb 85f 85f
6:50pm  -   -  13 16 mph 1011.8mb - 85f
6:40pm  -   -  13 16 mph 1011.8mb - 85f
6:30pm  -   -  13 16 mph 1011.8mb - 85f
6:20pm  -   -  13 16 mph 1011.8mb - 85f
6:10pm  -   -  11 16 mph 1011.9mb - 85f
6:00pm 1ft 2s 11 13 mph 1012mb 84f 85f
5:50pm  -   -  11 13 mph 1012mb - 85f
5:40pm  -   -  13 16 mph 1012mb - 85f
5:30pm  -   -  13 16 mph 1012.1mb - 85f
5:20pm  -   -  13
mph
1012.3mb - 85f
5:10pm  -   -  11 13 mph 1012.5mb - 85f
5:00pm 1ft 2s 11
mph
1012.6mb 84f 85f
4:50pm  -   -  11 13 mph 1012.7mb - 85f
4:40pm  -   -  11 13 mph 1012.8mb - 85f
4:30pm  -   -  11 13 mph 1012.9mb - 85f
4:20pm  -   -  11 13 mph 1013mb - 85f
4:10pm  -   -  11 13 mph 1013.2mb - 85f
4:00pm 1ft 2s 11 13 mph 1013.3mb 84f 85f
3:50pm  -   -  11 13 mph 1013.4mb - 85f
3:40pm  -   -  11 13 mph 1013.5mb - 85f
3:30pm  -   -  11 13 mph 1013.5mb - 84f
3:20pm  -   -  11 13 mph 1013.6mb - 84f
3:10pm  -   -  11 13 mph 1013.7mb - 84f
3:00pm 1ft 2s 9 11 mph 1013.9mb 84f 84f
2:50pm  -   -  9 11 mph 1014.1mb - 84f
2:40pm  -   -  11 13 mph 1014.1mb - 84f
2:30pm  -   -  11 13 mph 1014.2mb - 83f
2:20pm  -   -  11 13 mph 1014.3mb - 83f
2:10pm  -   -  11 13 mph 1014.6mb - 83f
2:00pm 1ft 2s 11 13 mph 1014.7mb 84f 83f
1:50pm  -   -  11 13 mph 1014.9mb - 83f
1:40pm  -   -  11 13 mph 1014.9mb - 83f
1:30pm  -   -  11 13 mph 1015mb - 83f
1:20pm  -   -  11 13 mph 1015.1mb - 83f
1:10pm  -   -  11 13 mph 1015.2mb - 83f
1:00pm 0.7ft  -  11 13 mph 1015.3mb 84f 83f
12:50pm  -   -  11 13 mph 1015.4mb - 82f
12:40pm  -   -  11 13 mph 1015.4mb - 82f
12:30pm  -   -  9 11 mph 1015.4mb - 82f
12:20pm  -   -  9 11 mph 1015.5mb - 80f
12:10pm  -   -  9 11 mph 1015.7mb - 80f
12:00pm 0.3ft  -  9
mph
1015.8mb 84f 80f
11:50am  -   -  9 11 mph 1015.9mb - 80f
11:40am  -   -  9 11 mph 1016mb - 80f
11:30am  -   -  7 9 mph 1016mb - 80f
11:20am  -   -  7 9 mph 1016.1mb - 80f
11:10am  -   -  7 9 mph 1016.2mb - 80f
11:00am 0.3ft  -  7
mph
1016.3mb 84f 80f
10:50am  -   -  4 7 mph 1016.4mb - 79f
10:40am  -   -  4 7 mph 1016.5mb - 79f
10:30am  -   -  4 7 mph 1016.6mb - 79f
10:20am  -   -  4 7 mph 1016.6mb - 79f
10:10am  -   -  4 7 mph 1016.6mb - 79f
10:00am 0.3ft  -  4 7 mph 1016.6mb 83f 79f
9:50am  -   -  4 7 mph 1016.6mb - 79f
9:40am  -   -  2 4 mph 1016.4mb - 79f
9:30am  -   -  2 4 mph 1016.5mb - 79f
9:20am  -   -  4
mph
1016.5mb - 78f
9:10am  -   -  2 4 mph 1016.5mb - 78f
9:00am 0.3ft  -  2 4 mph 1016.6mb 83f 78f
8:50am  -   -  4
mph
1016.7mb - 78f
8:40am  -   -  4
mph
1016.7mb - 78f
8:30am  -   -  4
mph
1016.8mb - 78f
8:20am  -   -  2 4 mph 1016.8mb - 78f
8:10am  -   -  2 4 mph 1016.7mb - 77f
8:00am 0.3ft  -  2 4 mph 1016.6mb 82f 77f
7:50am  -   -  2
mph
1016.5mb - 77f
7:40am  -   -  2 4 mph 1016.4mb - 76f
7:30am  -   -  2 4 mph 1016.3mb - 76f
7:20am  -   -  2 4 mph 1016.4mb - 76f
7:10am  -   -  2 4 mph 1016.4mb - 76f
7:00am 0.3ft  -  2 4 mph 1016.4mb 82f 76f
6:50am  -   -  2
mph
1016.4mb - 76f
6:40am  -   -  2
mph
1016.3mb - 76f
6:30am  -   -   -  2 mph 1016.2mb - 76f
6:20am  -   -  2 4 mph 1016.3mb - 76f
6:10am  -   -  4 7 mph 1016.3mb - 76f
6:00am 0.3ft  -  4 7 mph 1016.3mb 82f 77f
5:50am  -   -  4
mph
1016.4mb - 77f
5:40am  -   -  4
mph
1016.4mb - 77f
5:30am  -   -  4
mph
1016.4mb - 77f
5:20am  -   -  4
mph
1016.4mb - 77f
5:10am  -   -  4
mph
1016.4mb - 77f
5:00am 0.3ft  -  4
mph
1016.5mb 82f 77f
4:50am  -   -  2 4 mph 1016.6mb - 77f
4:40am  -   -  4
mph
1016.5mb - 77f
4:30am  -   -  4
mph
1016.6mb - 77f
4:20am  -   -  4
mph
1016.7mb - 77f
4:10am  -   -  2 4 mph 1016.7mb - 77f
4:00am 0.7ft  -  2 4 mph 1016.7mb 82f 77f
3:50am  -   -  4 7 mph 1016.9mb - 77f
3:40am  -   -  4 7 mph 1016.9mb - 77f
3:30am  -   -  4
mph
1016.8mb - 77f
3:20am  -   -  4 7 mph 1016.9mb - 78f
3:10am  -   -  4 7 mph 1016.9mb - 78f
3:00am 0.7ft  -  4 7 mph 1016.9mb 82f 78f
2:50am  -   -  4 7 mph 1017mb - 79f
2:40am  -   -  4 7 mph 1017mb - 79f
2:30am  -   -  4 7 mph 1017.1mb - 79f
2:20am  -   -  4 7 mph 1017mb - 79f
2:10am  -   -  7 9 mph 1017mb - 80f
2:00am 0.7ft  -  7 9 mph 1017.1mb 83f 80f
1:50am  -   -  9
mph
1017.2mb - 80f
1:40am  -   -  9 11 mph 1017.2mb - 80f
1:30am  -   -  9 11 mph 1017.3mb - 80f
1:20am  -   -  9 11 mph 1017.4mb - 80f
1:10am  -   -  9 11 mph 1017.5mb - 80f
1:00am 0.7ft  -  9 11 mph 1017.5mb 83f 80f
12:50am  -   -  9 11 mph 1017.5mb - 80f
12:40am  -   -  9 11 mph 1017.5mb - 80f
12:30am  -   -  11
mph
1017.4mb - 80f
12:20am  -   -  9 11 mph 1017.4mb - 80f
12:10am  -   -  9 11 mph 1017.5mb - 81f
12:00am 0.3ft  -  9
mph
1017.5mb 83f 81f
Tue 08/30 11:50pm  -   -  9
mph
1017.5mb - 80f
11:40pm  -   -  9 11 mph 1017.4mb - 81f
11:30pm  -   -  9 11 mph 1017.5mb - 81f
11:20pm  -   -  7 11 mph 1017.5mb - 82f
11:10pm  -   -  7
mph
1017.6mb - 82f
11:00pm 0.3ft  -  7
mph
1017.6mb 83f 82f
10:50pm  -   -  7
mph
1017.6mb - 82f
10:40pm  -   -  7
mph
1017.7mb - 82f
10:30pm  -   -  7
mph
1017.6mb - 82f
10:20pm  -   -  4 7 mph 1017.6mb - 83f
10:10pm  -   -  4 7 mph 1017.6mb - 83f
10:00pm  -   -  4 7 mph 1017.7mb 83f 83f
9:50pm  -   -  7
mph
1017.7mb - 83f
9:40pm  -   -  7
mph
1017.7mb - 83f
9:30pm  -   -  4 7 mph 1017.7mb - 83f
9:20pm  -   -  7
mph
1017.7mb - 83f
9:10pm  -   -  7
mph
1017.7mb - 83f
9:00pm  -   -  7
mph
1017.7mb 83f 83f
8:50pm  -   -  7 9 mph 1017.6mb - 83f
8:40pm  -   -  7 9 mph 1017.5mb - 83f
8:30pm  -   -  7 9 mph 1017.5mb - 83f
8:20pm  -   -  7 9 mph 1017.5mb - 83f
8:10pm  -   -  7 9 mph 1017.5mb - 83f
8:00pm 0.3ft  -  7 9 mph 1017.5mb 83f 83f
7:50pm  -   -  7
mph
1017.5mb - 83f
7:40pm  -   -  4 7 mph 1017.5mb - 83f
7:30pm  -   -  4 7 mph 1017.7mb - 83f
7:20pm  -   -  4 7 mph 1017.9mb - 84f
7:10pm  -   -  4 7 mph 1018.1mb - 84f
7:00pm 0.3ft  -  4 7 mph 1018.2mb 84f 84f
6:50pm  -   -  4 7 mph 1018.2mb - 84f
6:40pm  -   -  4 7 mph 1018.2mb - 85f
6:30pm  -   -  4
mph
1018.3mb - 85f
6:20pm  -   -  4
mph
1018.3mb - 85f
6:10pm  -   -  4 7 mph 1018.4mb - 85f
6:00pm 0.3ft  -  2 4 mph 1018.5mb 84f 85f
5:50pm  -   -  2
mph
1018.5mb - 85f
5:40pm  -   -  2
mph
1018.6mb - 85f
5:30pm  -   -  2
mph
1018.6mb - 85f
5:20pm  -   -  2 4 mph 1018.6mb - 84f
5:10pm  -   -  4
mph
1018.7mb - 84f
5:00pm 0.3ft  -  4 7 mph 1018.8mb 85f 84f
4:50pm  -   -  4 7 mph 1018.9mb - 84f
4:40pm  -   -  4 7 mph 1018.9mb - 84f
4:30pm  -   -  4 7 mph 1019mb - 84f
4:20pm  -   -  4 7 mph 1019mb - 84f
4:10pm  -   -  4 7 mph 1019mb - 83f
4:00pm 0.3ft  -  7
mph
1019.1mb 85f 83f
3:50pm  -   -  4 7 mph 1019.2mb - 83f
3:40pm  -   -  4 7 mph 1019.3mb - 83f
3:30pm  -   -  4 7 mph 1019.3mb - 83f
3:20pm  -   -  4 7 mph 1019.4mb - 82f
3:10pm  -   -  4 7 mph 1019.5mb - 82f
3:00pm 0.3ft  -  4 7 mph 1019.6mb 84f 82f
2:50pm  -   -  4 7 mph 1019.7mb - 81f
2:40pm  -   -  4 7 mph 1019.8mb - 81f
2:30pm  -   -  4 7 mph 1020mb - 81f
2:20pm  -   -  4 7 mph 1020.1mb - 81f
2:10pm  -   -  4 7 mph 1020.1mb - 80f
2:00pm 0.3ft  -  4 7 mph 1020.3mb 84f 80f
1:50pm  -   -  4 7 mph 1020.5mb - 80f
1:40pm  -   -  4 7 mph 1020.5mb - 80f
1:30pm  -   -  4 7 mph 1020.6mb - 79f
1:20pm  -   -  4 7 mph 1020.7mb - 79f
1:10pm  -   -  4 7 mph 1020.8mb - 79f
1:00pm  -   -  7 9 mph 1020.8mb 83f 78f
12:50pm  -   -  7 9 mph 1020.9mb - 78f
12:40pm  -   -  7 9 mph 1020.9mb - 78f
12:30pm  -   -  7 9 mph 1021mb - 78f
12:20pm  -   -  7 9 mph 1021.1mb - 77f
12:10pm  -   -  7 9 mph 1021mb - 77f
12:00pm 0.7ft  -  7 9 mph 1021mb 83f 77f
11:50am  -   -  7 9 mph 1021.1mb - 77f
11:40am  -   -  7 9 mph 1021.1mb - 77f
11:30am  -   -  7 9 mph 1021.2mb - 77f
11:20am  -   -  7 9 mph 1021.3mb - 77f
11:10am  -   -  7 9 mph 1021.4mb - 77f
11:00am 1ft 2s 7 9 mph 1021.5mb 82f 77f
10:50am  -   -  7 9 mph 1021.6mb - 76f
10:40am  -   -  7 9 mph 1021.6mb - 77f
10:30am  -   -  7 9 mph 1021.6mb - 76f
10:20am  -   -  7 9 mph 1021.6mb - 76f
10:10am  -   -  9 11 mph 1021.7mb - 76f
10:00am 1.3ft 2s 9 13 mph 1021.7mb 81f 76f
9:50am  -   -  11 13 mph 1021.7mb - 76f
9:40am  -   -  11 13 mph 1021.7mb - 76f
9:30am  -   -  13 16 mph 1021.6mb - 76f
9:20am  -   -  16 20 mph 1021.6mb - 76f
9:10am  -   -  16 20 mph 1021.7mb - 76f
9:00am 1.6ft 2s 16 20 mph 1021.6mb 81f 77f
8:50am  -   -  16 18 mph 1021.7mb - 77f
8:40am  -   -  16 22 mph 1021.6mb - 77f
8:30am  -   -  18 20 mph 1021.8mb - 77f
8:20am  -   -  18 20 mph 1021.6mb - 77f
8:10am  -   -  16 20 mph 1021.6mb - 77f
8:00am 1.6ft 3s 16 20 mph 1021.4mb 81f 78f
7:50am  -   -  16 20 mph 1021.3mb - 78f
7:40am  -   -  16 20 mph 1021.1mb - 78f
7:30am  -   -  16 22 mph 1021.2mb - 78f
7:20am  -   -  16 20 mph 1021.2mb - 78f
7:10am  -   -  16 20 mph 1020.7mb - 78f
7:00am 1.3ft 3s 16 20 mph 1020.3mb 81f 77f
6:50am  -   -  16 18 mph 1020mb - 77f
6:40am  -   -  16 18 mph 1020mb - 77f
6:30am  -   -  16 18 mph 1020mb - 76f
6:20am  -   -  16 18 mph 1020mb - 76f
6:10am  -   -  16 18 mph 1019.9mb - 76f
6:00am 1.3ft 3s 13 18 mph 1020mb 81f 77f
5:50am  -   -  13 18 mph 1020mb - 77f
5:40am  -   -  16 18 mph 1019.9mb - 77f
5:30am  -   -  16 18 mph 1019.9mb - 77f
5:20am  -   -  16 18 mph 1019.8mb - 77f
5:10am  -   -  16 18 mph 1019.7mb - 78f
5:00am 1.3ft 3s 16 18 mph 1019.6mb 82f 78f
4:50am  -   -  16 18 mph 1019.6mb - 78f
4:40am  -   -  16 18 mph 1019.5mb - 79f
4:30am  -   -  16 20 mph 1019.5mb - 79f
4:20am  -   -  16 20 mph 1019.4mb - 79f
4:10am  -   -  16 18 mph 1019.5mb - 79f
4:00am 1.6ft 3s 16 20 mph 1019.5mb 82f 80f
3:50am  -   -  16 20 mph 1019.5mb - 80f
3:40am  -   -  18 20 mph 1019.5mb - 80f
3:30am  -   -  18 20 mph 1019.5mb - 80f
3:20am  -   -  18 20 mph 1019.6mb - 80f
3:10am  -   -  16 20 mph 1019.6mb - 80f
3:00am 1.6ft 3s 16 18 mph 1019.5mb 82f 80f
2:50am  -   -  13 16 mph 1019.5mb - 80f
2:40am  -   -  13 16 mph 1019.5mb - 80f
2:30am  -   -  13 18 mph 1019.6mb - 80f
2:20am  -   -  13 18 mph 1019.5mb - 81f
2:10am  -   -  16 18 mph 1019.6mb - 81f
2:00am 1.6ft 3s 13 18 mph 1019.6mb 83f 81f
1:50am  -   -  13 16 mph 1019.6mb - 81f
1:40am  -   -  16 18 mph 1019.6mb - 81f
1:30am  -   -  16 20 mph 1019.6mb - 81f
1:20am  -   -  16 20 mph 1019.7mb - 81f
1:10am  -   -  18 20 mph 1019.8mb - 81f
1:00am 1.6ft 3s 18 20 mph 1019.9mb 83f 81f
12:50am  -   -  18 22 mph 1020mb - 81f
12:40am  -   -  18 20 mph 1020.1mb - 81f
12:30am  -   -  18 20 mph 1020.3mb - 82f
12:20am  -   -  18 20 mph 1020.3mb - 82f
12:10am  -   -  16 18 mph 1020.3mb - 82f
12:00am 1.3ft 2s 16 20 mph 1020.3mb 83f 82f
Mon 08/29 11:50pm  -   -  16 20 mph 1020.3mb - 82f
11:40pm  -   -  16 18 mph 1020.3mb - 82f
11:30pm  -   -  16 18 mph 1020.3mb - 82f
11:20pm  -   -  13 16 mph 1020.4mb - 83f
11:10pm  -   -  13 16 mph 1020.4mb - 83f
11:00pm  -   -  13 16 mph 1020.5mb 84f 83f
10:50pm  -   -  13 16 mph 1020.5mb - 84f
10:40pm  -   -  16 18 mph 1020.5mb - 84f
10:30pm  -   -  13 18 mph 1020.2mb - 84f
10:20pm  -   -  4 7 mph 1020.2mb - 84f
10:10pm  -   -  2
mph
1020.1mb - 83f
10:00pm 0.3ft  -  2
mph
1020.1mb 84f 84f
9:50pm  -   -   -  2 mph 1020mb - 84f
9:40pm  -   -  2 4 mph 1020mb - 84f
9:30pm  -   -  2 4 mph 1020mb - 85f
9:20pm  -   -  2 4 mph 1019.9mb - 85f
9:10pm  -   -  2
mph
1019.8mb - 85f
9:00pm 0.3ft  -  2
mph
1019.7mb 84f 85f
8:50pm  -   -  2 4 mph 1019.7mb - 85f
8:40pm  -   -  2 4 mph 1019.6mb - 85f
8:30pm  -   -  4
mph
1019.5mb - 85f
8:20pm  -   -  4
mph
1019.5mb - 85f
8:10pm  -   -  4 7 mph 1019.5mb - 85f
8:00pm 0.3ft  -  4
mph
1019.5mb 85f 85f
7:50pm  -   -  4
mph
1019.4mb - 85f
7:40pm  -   -  4
mph
1019.5mb - 85f
7:30pm  -   -  4
mph
1019.5mb - 85f
7:20pm  -   -  4
mph
1019.5mb - 86f
7:10pm  -   -  4
mph
1019.5mb - 86f
7:00pm 0.3ft  -  4
mph
1019.4mb 85f 86f
6:50pm  -   -  4
mph
1019.4mb - 86f
6:40pm  -   -  4
mph
1019.5mb - 86f
6:30pm  -   -  4
mph
1019.4mb - 87f
6:20pm  -   -  4
mph
1019.4mb - 86f
6:10pm  -   -  4
mph
1019.4mb - 86f
6:00pm 0.3ft  -  4 7 mph 1019.4mb 85f 86f
5:50pm  -   -  4 7 mph 1019.4mb - 86f
5:40pm  -   -  7
mph
1019.5mb - 85f
5:30pm  -   -  4 7 mph 1019.5mb - 85f
5:20pm  -   -  4 7 mph 1019.5mb - 85f
5:10pm  -   -  7
mph
1019.6mb - 85f
5:00pm 0.3ft  -  7
mph
1019.7mb 85f 85f
4:50pm  -   -  7
mph
1019.8mb - 85f
4:40pm  -   -  7
mph
1019.8mb - 85f
4:30pm  -   -  7 9 mph 1019.9mb - 85f
4:20pm  -   -  7 9 mph 1019.9mb - 84f
4:10pm  -   -  7
mph
1020mb - 84f
4:00pm 0.3ft  -  7
mph
1020mb 85f 84f
3:50pm  -   -  7
mph
1020.1mb - 84f
3:40pm  -   -  4 7 mph 1020.4mb - 84f
3:30pm  -   -  4
mph
1020.6mb - 84f
3:20pm  -   -  4 7 mph 1020.8mb - 83f
3:10pm  -   -  7
mph
1020.9mb - 83f
3:00pm 0.3ft  -  4 7 mph 1021mb 85f 83f
2:50pm  -   -  4 7 mph 1021.1mb - 83f
2:40pm  -   -  4 7 mph 1021.2mb - 83f
2:30pm  -   -  4 7 mph 1021.3mb - 83f
2:20pm  -   -  7
mph
1021.4mb - 83f
2:10pm  -   -  7 9 mph 1021.4mb - 83f
2:00pm  -   -  7
mph
1021.5mb 84f 82f
1:50pm  -   -  7 9 mph 1021.6mb - 82f
1:40pm  -   -  7 9 mph 1021.7mb - 82f
1:30pm  -   -  7 9 mph 1021.7mb - 82f
1:20pm  -   -  7
mph
1021.8mb - 82f
1:10pm  -   -  4
mph
1021.9mb - 83f
1:00pm 0.3ft  -  4
mph
1021.9mb 84f 83f
12:50pm  -   -  2 4 mph 1021.9mb - 83f
12:40pm  -   -   -  2 mph 1022mb - 83f
12:30pm  -   -  2
mph
1021.9mb - 83f
12:20pm  -   -  2
mph
1021.9mb - 82f
12:10pm  -   -  2
mph
1022mb - 83f
12:00pm 0.3ft  -  2
mph
1022.1mb 83f 82f
11:50am  -   -  2 4 mph 1022.2mb - 82f
11:40am  -   -  2 4 mph 1022.2mb - 82f
11:30am  -   -  4 7 mph 1022.3mb - 81f
11:20am  -   -  4 7 mph 1022.2mb - 81f
11:10am  -   -  4 7 mph 1022.1mb - 81f
11:00am 0.3ft  -  7 9 mph 1022.1mb 83f 80f
10:50am  -   -  7 9 mph 1022mb - 80f
10:40am  -   -  7 9 mph 1022.3mb - 80f
10:30am  -   -  7 9 mph 1022.2mb - 80f
10:20am  -   -  9 11 mph 1022.1mb - 79f
10:10am  -   -  9 11 mph 1022.2mb - 79f
10:00am 0.3ft  -  9 11 mph 1022mb 82f 79f
9:50am  -   -  9
mph
1022mb - 78f
9:40am  -   -  9 11 mph 1022mb - 78f
9:30am  -   -  9 11 mph 1022.1mb - 78f
9:20am  -   -  9 11 mph 1022.1mb - 78f
9:10am  -   -  9 11 mph 1022.3mb - 78f
9:00am 0.3ft  -  9 11 mph 1022.4mb 82f 78f
8:50am  -   -  7 9 mph 1022.3mb - 78f
8:40am  -   -  7 9 mph 1022.3mb - 78f
8:30am  -   -  7
mph
1022.3mb - 78f
8:20am  -   -  7 9 mph 1022.2mb - 77f
8:10am  -   -  7 9 mph 1022.2mb - 77f
8:00am 0.3ft  -  7 9 mph 1022.2mb 82f 77f
7:50am  -   -  7 9 mph 1022.1mb - 76f
7:40am  -   -  7 9 mph 1021.8mb - 76f
7:30am  -   -  7 9 mph 1021.5mb - 76f
7:20am  -   -  7 9 mph 1021.4mb - 76f
7:10am  -   -  7 9 mph 1021.3mb - 76f
7:00am  -   -  7 9 mph 1021.3mb 82f 76f
6:50am  -   -  9 11 mph 1021.3mb - 76f
6:40am  -   -  9 11 mph 1021.2mb - 76f
6:30am  -   -  9 11 mph 1021.1mb - 76f
6:20am  -   -  9 11 mph 1020.9mb - 76f
6:10am  -   -  9 11 mph 1020.8mb - 76f
6:00am  -   -  9 11 mph 1020.7mb 82f 76f
5:50am  -   -  9 13 mph 1020.6mb - 76f
5:40am  -   -  9 11 mph 1020.4mb - 77f
5:30am  -   -  7 9 mph 1020.2mb - 78f
5:20am  -   -  7 9 mph 1020.1mb - 78f
5:10am  -   -  9 11 mph 1020mb - 78f
5:00am 0.7ft  -  9 13 mph 1020mb 82f 77f
4:50am  -   -  11 13 mph 1020mb - 77f
4:40am  -   -  9 13 mph 1020.1mb - 77f
4:30am  -   -  9 11 mph 1020.2mb - 78f
4:20am  -   -  9 13 mph 1020.3mb - 78f
4:10am  -   -  9 11 mph 1020.4mb - 78f
4:00am 0.7ft  -  9 11 mph 1020.4mb 82f 78f
3:50am  -   -  11 13 mph 1020.6mb - 78f
3:40am  -   -  9 13 mph 1020.7mb - 78f
3:30am  -   -  11 13 mph 1020.8mb - 78f
3:20am  -   -  9 11 mph 1021mb - 78f
3:10am  -   -  9 11 mph 1021.1mb - 78f
3:00am  -   -  9 13 mph 1021.1mb 82f 78f
2:50am  -   -  11 13 mph 1021.2mb - 78f
2:40am  -   -  11 13 mph 1021.3mb - 78f
2:30am  -   -  9 11 mph 1021.5mb - 78f
2:20am  -   -  7 11 mph 1021.6mb - 78f
2:10am  -   -  9 11 mph 1021.6mb - 78f
2:00am 0.7ft  -  9 11 mph 1021.6mb 82f 78f
1:50am  -   -  9 11 mph 1021.8mb - 78f
1:40am  -   -  7 9 mph 1022mb - 77f
1:30am  -   -  9
mph
1022mb - 77f
1:20am  -   -  9 11 mph 1022mb - 78f
1:10am  -   -  9
mph
1021.9mb - 78f
1:00am 1ft 2s 9 11 mph 1022mb 82f 77f
12:50am  -   -  9 11 mph 1022mb - 77f
12:40am  -   -  11 13 mph 1022mb - 78f
12:30am  -   -  9 13 mph 1022.2mb - 78f
12:20am  -   -  9 11 mph 1022.4mb - 78f
12:10am  -   -  9 11 mph 1022.3mb - 78f
12:00am 1ft 2s 9 11 mph 1022.2mb 82f 78f
Sun 08/28 11:50pm  -   -  11 13 mph 1022.2mb - 78f
11:40pm  -   -  11 13 mph 1022.2mb - 78f
11:30pm  -   -  11 13 mph 1022.4mb - 79f
11:20pm  -   -  11 13 mph 1022.6mb - 79f
11:10pm  -   -  11 13 mph 1022.7mb - 79f
11:00pm 1.3ft 3s 11 13 mph 1022.6mb 83f 79f
10:50pm  -   -  13 16 mph 1022.2mb - 79f
10:40pm  -   -  13 16 mph 1022.1mb - 79f
10:30pm  -   -  13 16 mph 1022.1mb - 79f
10:20pm  -   -  16 18 mph 1021.9mb - 80f
10:10pm  -   -  13 18 mph 1021.8mb - 80f
10:00pm 1.3ft 2s 13 16 mph 1021.7mb 83f 80f
9:50pm  -   -  13 16 mph 1021.7mb - 80f
9:40pm  -   -  13 16 mph 1021.6mb - 81f
9:30pm  -   -  13 16 mph 1021.4mb - 81f
9:20pm  -   -  13 18 mph 1021.4mb - 81f
9:10pm  -   -  13 16 mph 1021.3mb - 81f
9:00pm 1ft 2s 13 16 mph 1021.3mb 83f 82f
8:50pm  -   -  13 16 mph 1021.2mb - 82f
8:40pm  -   -  13 16 mph 1021.1mb - 82f
8:30pm  -   -  13 18 mph 1021.2mb - 82f
8:20pm  -   -  13 16 mph 1021.3mb - 82f
8:10pm  -   -  13 16 mph 1021.2mb - 83f
8:00pm 0.7ft  -  13 16 mph 1021.3mb 84f 83f
7:50pm  -   -  13 16 mph 1021.5mb - 83f
7:40pm  -   -  11 16 mph 1021.6mb - 84f
7:30pm  -   -  11 13 mph 1021.7mb - 84f
7:20pm  -   -  7 9 mph 1021.8mb - 84f
7:10pm  -   -  7
mph
1021.8mb - 84f
7:00pm 0.7ft  -  7 9 mph 1021.9mb 85f 84f
6:50pm  -   -  4 7 mph 1022.1mb - 84f
6:40pm  -   -  4 7 mph 1022.3mb - 84f
6:30pm  -   -  4 7 mph 1022.5mb - 84f
6:20pm  -   -  4 7 mph 1022.5mb - 84f
6:10pm  -   -  4 7 mph 1022.6mb - 84f
6:00pm 0.7ft  -  4 7 mph 1022.7mb 85f 84f
5:50pm  -   -  4 7 mph 1022.8mb - 84f
5:40pm  -   -  4
mph
1022.8mb - 84f
5:30pm  -   -  4
mph
1022.9mb - 84f
5:20pm  -   -  2 4 mph 1022.8mb - 84f
5:10pm  -   -  2 4 mph 1022.7mb - 84f
5:00pm 0.7ft  -  2 4 mph 1022.7mb 85f 84f
4:50pm  -   -  2 4 mph 1022.8mb - 84f
4:40pm  -   -  2 4 mph 1022.8mb - 83f
4:30pm  -   -  2 4 mph 1022.9mb - 83f
4:20pm  -   -  4
mph
1023mb - 83f
4:10pm  -   -  4
mph
1023.2mb - 83f
4:00pm 1ft 3s 2 4 mph 1023.5mb 85f 83f
3:50pm  -   -  2 4 mph 1023.5mb - 83f
3:40pm  -   -  2 4 mph 1023.6mb - 82f
3:30pm  -   -  2 4 mph 1023.8mb - 82f
3:20pm  -   -  2 4 mph 1023.9mb - 82f
3:10pm  -   -  2 4 mph 1024mb - 82f
3:00pm 1ft 2s 2 4 mph 1024.1mb 85f 82f
2:50pm  -   -  4
mph
1024.3mb - 81f
2:40pm  -   -  2 4 mph 1024.5mb - 81f
2:30pm  -   -  2 4 mph 1024.7mb - 81f
2:20pm  -   -  2
mph
1024.8mb - 81f
2:10pm  -   -  2
mph
1024.8mb - 81f
2:00pm 1ft 2s 2
mph
1024.8mb 85f 80f
1:50pm  -   -  2 4 mph 1024.9mb - 80f
1:40pm  -   -  2 4 mph 1025mb - 80f
1:30pm  -   -  2 4 mph 1025mb - 79f
1:20pm  -   -  4
mph
1024.9mb - 79f
1:10pm  -   -  4 7 mph 1024.9mb - 79f
1:00pm 1ft 2s 2 4 mph 1024.9mb 85f 79f
12:50pm  -   -  2 4 mph 1025mb - 79f
12:40pm  -   -  2 4 mph 1025mb - 79f
12:30pm  -   -  2 4 mph 1025.3mb - 79f
12:20pm  -   -  2 4 mph 1025.4mb - 79f
12:10pm  -   -  2 4 mph 1025.4mb - 78f
12:00pm 0.7ft  -  2 4 mph 1025.4mb 83f 79f
11:50am  -   -  2 4 mph 1025.4mb - 79f
11:40am  -   -  2 4 mph 1025.3mb - 79f
11:30am  -   -  2 4 mph 1025.3mb - 78f
11:20am  -   -  2 4 mph 1025.4mb - 78f
11:10am  -   -  2 4 mph 1025.5mb - 78f
11:00am 0.7ft  -  4 7 mph 1025.5mb 83f 78f
10:50am  -   -  4
mph
1025.5mb - 78f
10:40am  -   -  2 4 mph 1025.6mb - 78f
10:30am  -   -  4 7 mph 1025.5mb - 78f
10:20am  -   -  4 7 mph 1025.4mb - 78f
10:10am  -   -  4 7 mph 1025.4mb - 77f
10:00am 0.3ft  -  7 9 mph 1025.4mb 82f 77f
9:50am  -   -  7 9 mph 1025.3mb - 77f
9:40am  -   -  7 9 mph 1025.3mb - 77f
9:30am  -   -  7 9 mph 1025.4mb - 77f
9:20am  -   -  7
mph
1025.4mb - 77f
9:10am  -   -  7 9 mph 1025.4mb - 77f
9:00am 0.3ft  -  4 7 mph 1025.4mb 82f 77f
8:50am  -   -  4 7 mph 1025.3mb - 77f
8:40am  -   -  7
mph
1025.2mb - 77f
8:30am  -   -  7
mph
1025.1mb - 77f
8:20am  -   -  4 7 mph 1025.1mb - 77f
8:10am  -   -  4 7 mph 1025.1mb - 77f
8:00am 0.3ft  -  4 7 mph 1025.2mb 82f 77f
7:50am  -   -  4
mph
1025mb - 77f
7:40am  -   -  4 7 mph 1024.8mb - 77f
7:30am  -   -  4 7 mph 1024.7mb - 76f
7:20am  -   -  4 7 mph 1024.4mb - 76f
7:10am  -   -  4 7 mph 1024.2mb - 76f
7:00am 0.7ft  -  4
mph
1024mb 82f 76f
6:50am  -   -  4
mph
1023.8mb - 75f
6:40am  -   -  4 7 mph 1023.7mb - 75f
6:30am  -   -  4
mph
1023.5mb - 75f
6:20am  -   -  4 7 mph 1023.3mb - 75f
6:10am  -   -  4 7 mph 1023.3mb - 76f
6:00am 0.7ft  -  4 7 mph 1023.3mb 82f 76f
5:50am  -   -  2 4 mph 1023.3mb - 76f
5:40am  -   -  4 7 mph 1023.2mb - 75f
5:30am  -   -  7 9 mph 1023.1mb - 76f
5:20am  -   -  7
mph
1023mb - 76f
5:10am  -   -  7 9 mph 1023mb - 76f
5:00am 1ft 2s 7 9 mph 1022.9mb 83f 76f
4:50am  -   -  9 11 mph 1022.9mb - 76f
4:40am  -   -  9 11 mph 1022.9mb - 76f
4:30am  -   -  9 11 mph 1022.7mb - 76f
4:20am  -   -  11 13 mph 1022.6mb - 76f
4:10am  -   -  11 13 mph 1022.5mb - 76f
4:00am 1ft 2s 11 13 mph 1022.5mb 83f 76f
3:50am  -   -  11 13 mph 1022.5mb - 76f